Time;durP1;ratioP1;P1;durP2;ratioP2;P2;SDS_P1;SDS_P2;PMS_P1;PMS_P2;Temp;Humidity;BMP_temperature;BMP_pressure;BME280_temperature;BME280_humidity;BME280_pressure;Samples;Min_cycle;Max_cycle;Signal;HPM_P1;HPM_P2
2021/02/24 00:01:54;;;;;;;10.6;3.6;;;;;;;5.9;69.4209;956.0564;;;;
2021/02/24 00:04:19;;;;;;;13.7;4.1;;;;;;;5.79;69.78711;956.0433;;;;
2021/02/24 00:06:44;;;;;;;18.2;2.7;;;;;;;5.74;70.12793;956.0161;;;;
2021/02/24 00:09:09;;;;;;;9.2;3;;;;;;;5.78;70.06641;956.0569;;;;
2021/02/24 00:11:36;;;;;;;10.8;4;;;;;;;5.71;70.41699;956.0586;;;;
2021/02/24 00:14:07;;;;;;;14.8;3.6;;;;;;;5.72;70.45215;956.0259;;;;
2021/02/24 00:16:34;;;;;;;9.3;3.2;;;;;;;5.8;70.08008;955.991;;;;
2021/02/24 00:19:06;;;;;;;8;2.8;;;;;;;5.84;70.11035;955.9879;;;;
2021/02/24 00:21:32;;;;;;;5.5;2.5;;;;;;;5.87;70.15039;955.9534;;;;
2021/02/24 00:24:01;;;;;;;19.5;3.9;;;;;;;6.28;68.52148;955.9364;;;;
2021/02/24 00:26:31;;;;;;;13.8;3.6;;;;;;;6.39;68.10742;955.952;;;;
2021/02/24 00:29:00;;;;;;;8.2;2.8;;;;;;;6.28;68.39648;955.9175;;;;
2021/02/24 00:31:25;;;;;;;7.5;3.5;;;;;;;5.99;69.37891;955.8723;;;;
2021/02/24 00:33:55;;;;;;;13.4;3.6;;;;;;;5.84;69.80566;955.9442;;;;
2021/02/24 00:36:22;;;;;;;9.4;3.4;;;;;;;5.74;69.86816;955.9402;;;;
2021/02/24 00:38:47;;;;;;;7.3;3.3;;;;;;;5.58;70.1709;955.9531;;;;
2021/02/24 00:41:15;;;;;;;12.9;3.4;;;;;;;5.5;70.38281;956.0458;;;;
2021/02/24 00:43:40;;;;;;;9;3.3;;;;;;;5.52;70.30664;956.017;;;;
2021/02/24 00:46:08;;;;;;;6.4;3.2;;;;;;;5.58;70.10156;956.0572;;;;
2021/02/24 00:48:30;;;;;;;12.2;4;;;;;;;5.59;70.13672;956.0514;;;;
2021/02/24 00:50:58;;;;;;;7.9;3.3;;;;;;;5.67;69.74414;956.0349;;;;
2021/02/24 00:53:28;;;;;;;16.6;4.6;;;;;;;5.55;70.11816;956.0759;;;;
2021/02/24 00:55:53;;;;;;;11;3;;;;;;;5.52;70.3623;956.0878;;;;
2021/02/24 00:58:20;;;;;;;10.5;3.4;;;;;;;5.49;70.56055;956.1177;;;;
2021/02/24 01:00:45;;;;;;;9.6;2.7;;;;;;;5.44;70.8125;956.0701;;;;
2021/02/24 01:03:11;;;;;;;14.7;3.5;;;;;;;5.36;71.27344;956.0428;;;;
2021/02/24 01:05:36;;;;;;;12.5;4.1;;;;;;;5.16;72.41211;956.0983;;;;
2021/02/24 01:08:02;;;;;;;17.4;3.4;;;;;;;5.25;72.1123;956.0657;;;;
2021/02/24 01:10:27;;;;;;;12.4;4.2;;;;;;;5.33;71.69727;956.0087;;;;
2021/02/24 01:12:52;;;;;;;12.4;3.8;;;;;;;5.41;71.48535;955.9736;;;;
2021/02/24 01:15:24;;;;;;;6.4;3;;;;;;;5.42;71.33984;956.0406;;;;
2021/02/24 01:17:49;;;;;;;9.4;4.1;;;;;;;5.28;71.95898;955.998;;;;
2021/02/24 01:20:16;;;;;;;14.9;3.8;;;;;;;5.3;72.01855;955.9959;;;;
2021/02/24 01:22:41;;;;;;;12;3.3;;;;;;;5.31;72.03223;956.006;;;;
2021/02/24 01:25:12;;;;;;;12.8;3.9;;;;;;;5.22;72.32129;956.0485;;;;
2021/02/24 01:27:44;;;;;;;14.4;4;;;;;;;5.28;72.00488;956.0472;;;;
2021/02/24 01:30:14;;;;;;;7;3;;;;;;;5.32;71.86328;956.0609;;;;
2021/02/24 01:32:45;;;;;;;8.9;3.3;;;;;;;5.26;71.94434;956.0031;;;;
2021/02/24 01:35:18;;;;;;;20.8;4.1;;;;;;;5.14;72.70215;955.9985;;;;
2021/02/24 01:37:48;;;;;;;15.6;3.6;;;;;;;5.07;73.27637;956.0513;;;;
2021/02/24 01:40:14;;;;;;;10.7;4.1;;;;;;;5.13;73.27637;956.0453;;;;
2021/02/24 01:42:41;;;;;;;18.5;3.6;;;;;;;5.19;72.87988;955.9302;;;;
2021/02/24 01:45:12;;;;;;;12.3;3.6;;;;;;;5.1;73.19141;956.1001;;;;
2021/02/24 01:47:37;;;;;;;10.9;3.5;;;;;;;4.98;73.76855;955.9853;;;;
2021/02/24 01:50:05;;;;;;;7.9;3.1;;;;;;;4.93;73.97266;956.0609;;;;
2021/02/24 01:52:30;;;;;;;10.3;3.5;;;;;;;4.88;74.06641;956.0421;;;;
2021/02/24 01:54:55;;;;;;;23.9;4;;;;;;;4.83;74.20508;956.0321;;;;
2021/02/24 01:57:20;;;;;;;6.7;3.3;;;;;;;4.81;74.41602;955.9819;;;;
2021/02/24 01:59:46;;;;;;;11.5;3.1;;;;;;;4.79;74.61426;956.0009;;;;
2021/02/24 02:02:12;;;;;;;15.2;3.9;;;;;;;4.78;74.38574;955.988;;;;
2021/02/24 02:04:38;;;;;;;12.2;3.8;;;;;;;4.8;74.2666;956.0243;;;;
2021/02/24 02:07:03;;;;;;;13.4;3.4;;;;;;;4.82;74.06641;955.9545;;;;
2021/02/24 02:09:28;;;;;;;14.8;4.2;;;;;;;4.73;74.54883;955.9572;;;;
2021/02/24 02:11:53;;;;;;;8.7;3.5;;;;;;;4.78;74.4209;955.8898;;;;
2021/02/24 02:14:20;;;;;;;18.7;4.8;;;;;;;4.83;74.1582;955.8951;;;;
2021/02/24 02:16:49;;;;;;;34.6;5.6;;;;;;;4.82;74.24902;955.9084;;;;
2021/02/24 02:19:14;;;;;;;15.9;3.7;;;;;;;4.81;74.32422;955.9289;;;;
2021/02/24 02:21:44;;;;;;;8.8;2.9;;;;;;;4.78;74.30859;955.9063;;;;
2021/02/24 02:24:15;;;;;;;9.9;4.1;;;;;;;4.69;74.33594;955.9236;;;;
2021/02/24 02:26:44;;;;;;;18.5;3.9;;;;;;;4.74;74.22363;955.9095;;;;
2021/02/24 02:29:09;;;;;;;8.6;3.4;;;;;;;4.76;74.2041;955.9241;;;;
2021/02/24 02:31:34;;;;;;;8.8;3.3;;;;;;;4.88;73.50293;955.9108;;;;
2021/02/24 02:34:04;;;;;;;15.8;2.5;;;;;;;4.68;73.85156;955.8989;;;;
2021/02/24 02:36:29;;;;;;;8.3;3.3;;;;;;;4.74;73.70313;955.8934;;;;
2021/02/24 02:38:58;;;;;;;11.2;3.6;;;;;;;4.73;73.9502;955.9055;;;;
2021/02/24 02:41:24;;;;;;;13.7;3.1;;;;;;;4.69;74.50781;955.8128;;;;
2021/02/24 02:43:54;;;;;;;12.5;3.7;;;;;;;4.61;74.9209;955.8739;;;;
2021/02/24 02:46:19;;;;;;;11.7;3.4;;;;;;;4.5;75.33887;955.8394;;;;
2021/02/24 02:48:45;;;;;;;10.2;3;;;;;;;4.42;75.79883;955.9004;;;;
2021/02/24 02:51:10;;;;;;;13.7;3.3;;;;;;;4.43;76.05957;955.8795;;;;
2021/02/24 02:53:39;;;;;;;15.9;4.3;;;;;;;4.35;76.32617;955.8869;;;;
2021/02/24 02:56:04;;;;;;;11.5;3.6;;;;;;;4.37;76.46582;955.9459;;;;
2021/02/24 02:58:30;;;;;;;13.3;3.1;;;;;;;4.49;76.11426;955.9214;;;;
2021/02/24 03:00:57;;;;;;;7;2.7;;;;;;;4.52;75.80566;955.8936;;;;
2021/02/24 03:03:24;;;;;;;10;3.2;;;;;;;4.44;76.09473;955.902;;;;
2021/02/24 03:05:52;;;;;;;13.1;3.7;;;;;;;4.24;77.08301;955.9053;;;;
2021/02/24 03:08:19;;;;;;;8;3;;;;;;;4.17;77.67773;955.9384;;;;
2021/02/24 03:10:44;;;;;;;22.5;4.2;;;;;;;4.23;77.36133;955.9353;;;;
2021/02/24 03:13:11;;;;;;;14.6;3.9;;;;;;;4.3;76.47559;955.9037;;;;
2021/02/24 03:15:49;;;;;;;10.4;3.5;;;;;;;4.31;76.51074;955.9374;;;;
2021/02/24 03:18:19;;;;;;;13.7;3.6;;;;;;;4.39;76.28809;955.8434;;;;
2021/02/24 03:20:47;;;;;;;11.1;3.6;;;;;;;4.41;75.95508;955.8569;;;;
2021/02/24 03:23:16;;;;;;;11.7;3.6;;;;;;;4.49;75.60938;955.8264;;;;
2021/02/24 03:25:47;;;;;;;11.3;3.7;;;;;;;4.59;75.13281;955.8657;;;;
2021/02/24 03:28:18;;;;;;;6.4;2.9;;;;;;;4.79;74.3877;955.9066;;;;
2021/02/24 03:30:49;;;;;;;12.9;3.9;;;;;;;4.8;74.0752;955.9517;;;;
2021/02/24 03:33:17;;;;;;;13.7;3.6;;;;;;;4.83;73.75293;955.8954;;;;
2021/02/24 03:35:52;;;;;;;14.2;4;;;;;;;4.87;73.1748;955.9231;;;;
2021/02/24 03:38:19;;;;;;;7.7;2.9;;;;;;;4.8;73.06055;955.9261;;;;
2021/02/24 03:40:44;;;;;;;17.5;4.6;;;;;;;4.67;73.53516;955.959;;;;
2021/02/24 03:43:11;;;;;;;9.1;3.7;;;;;;;4.39;74.9834;955.8809;;;;
2021/02/24 03:45:36;;;;;;;17.9;4.3;;;;;;;4.36;75.32617;955.9835;;;;
2021/02/24 03:48:04;;;;;;;10.8;3.3;;;;;;;4.37;75.81152;955.9314;;;;
2021/02/24 03:50:29;;;;;;;13;4.3;;;;;;;4.48;75.40527;955.9662;;;;
2021/02/24 03:52:56;;;;;;;24;9.4;;;;;;;4.57;75.02637;955.9819;;;;
2021/02/24 03:55:21;;;;;;;19;9.2;;;;;;;4.71;74.45508;956.0065;;;;
2021/02/24 03:57:48;;;;;;;33.4;5.8;;;;;;;4.79;73.76953;956.0347;;;;
2021/02/24 04:02:30;;;;;;;29.2;7.2;;;;;;;4.63;73.96484;956.073;;;;
2021/02/24 04:04:55;;;;;;;16.7;5.7;;;;;;;4.58;74.17285;956.0323;;;;
2021/02/24 04:07:23;;;;;;;34.2;6.4;;;;;;;4.48;74.57129;956.0978;;;;
2021/02/24 04:09:49;;;;;;;17.4;7;;;;;;;4.52;74.6123;956.0499;;;;
2021/02/24 04:12:13;;;;;;;19.2;7.6;;;;;;;4.55;74.41406;956.0917;;;;
2021/02/24 04:14:41;;;;;;;15.7;4.7;;;;;;;4.45;75.13965;956.0792;;;;
2021/02/24 04:17:06;;;;;;;17.2;4.5;;;;;;;4.51;74.99316;956.0886;;;;
2021/02/24 04:19:34;;;;;;;13.1;4.8;;;;;;;4.44;75.36328;956.1228;;;;
2021/02/24 04:21:59;;;;;;;7.5;3.8;;;;;;;4.46;75.20898;956.1067;;;;
2021/02/24 04:24:30;;;;;;;9.7;3.4;;;;;;;4.53;75.23145;956.0691;;;;
2021/02/24 04:27:00;;;;;;;15.7;3.6;;;;;;;4.67;74.60449;956.007;;;;
2021/02/24 04:29:30;;;;;;;11;4.5;;;;;;;4.76;73.9209;956.0746;;;;
2021/02/24 04:31:55;;;;;;;10.6;3.8;;;;;;;4.77;73.90137;956.0477;;;;
2021/02/24 04:34:26;;;;;;;19.6;3.9;;;;;;;4.69;74.08984;956.0201;;;;
2021/02/24 04:36:51;;;;;;;18.3;4.2;;;;;;;4.47;74.91895;956.0467;;;;
2021/02/24 04:39:21;;;;;;;17.1;5.1;;;;;;;4.45;75.18457;956.0698;;;;
2021/02/24 04:41:49;;;;;;;16;3.9;;;;;;;4.41;75.09961;956.0803;;;;
2021/02/24 04:44:19;;;;;;;17.1;4.4;;;;;;;4.3;75.64258;956.0898;;;;
2021/02/24 04:46:44;;;;;;;17.2;4.2;;;;;;;4.24;75.96973;956.0636;;;;
2021/02/24 04:49:14;;;;;;;14;4.8;;;;;;;4.1;76.87695;956.0533;;;;
2021/02/24 04:51:44;;;;;;;14.8;4.1;;;;;;;4.02;77.25781;956.0507;;;;
2021/02/24 04:54:16;;;;;;;13.2;4.2;;;;;;;3.99;77.41992;956.0895;;;;
2021/02/24 04:56:41;;;;;;;9.5;3.6;;;;;;;4.09;77.24707;956.1273;;;;
2021/02/24 04:59:10;;;;;;;12.8;3.9;;;;;;;4.07;77.35742;956.1337;;;;
2021/02/24 05:01:39;;;;;;;17.8;3.7;;;;;;;4.22;76.65234;956.0905;;;;
2021/02/24 05:04:04;;;;;;;12.1;3.7;;;;;;;4.29;76.14746;956.0961;;;;
2021/02/24 05:06:31;;;;;;;12.1;4.4;;;;;;;4.3;75.90137;956.1961;;;;
2021/02/24 05:08:56;;;;;;;9.2;3.6;;;;;;;4.27;75.94043;956.1494;;;;
2021/02/24 05:11:22;;;;;;;13.5;4;;;;;;;4.2;76.12012;956.1819;;;;
2021/02/24 05:13:52;;;;;;;13.1;3.4;;;;;;;4.09;76.29102;956.1945;;;;
2021/02/24 05:16:20;;;;;;;9;4;;;;;;;4.03;76.50586;956.2238;;;;
2021/02/24 05:18:45;;;;;;;23;4.4;;;;;;;4.02;76.70508;956.1806;;;;
2021/02/24 05:21:15;;;;;;;8.7;3.7;;;;;;;3.82;77.94141;956.2444;;;;
2021/02/24 05:23:47;;;;;;;18.9;4.2;;;;;;;3.72;78.91016;956.1956;;;;
2021/02/24 05:26:14;;;;;;;18.8;5.4;;;;;;;3.75;79.01953;956.2042;;;;
2021/02/24 05:28:43;;;;;;;23;5.7;;;;;;;3.87;78.60156;956.1269;;;;
2021/02/24 05:31:08;;;;;;;13;4.4;;;;;;;4;78.12012;956.1951;;;;
2021/02/24 05:33:39;;;;;;;16.2;5.2;;;;;;;4.1;77.51855;956.2416;;;;
2021/02/24 05:36:08;;;;;;;16.6;4.8;;;;;;;4.16;77.33887;956.2233;;;;
2021/02/24 05:38:40;;;;;;;14;4.9;;;;;;;4.28;76.9209;956.2017;;;;
2021/02/24 05:41:06;;;;;;;19.3;5.9;;;;;;;4.12;77.72363;956.2011;;;;
2021/02/24 05:43:31;;;;;;;22.9;6.5;;;;;;;3.94;78.64844;956.1739;;;;
2021/02/24 05:45:58;;;;;;;19.5;6.4;;;;;;;3.86;79.04883;956.1814;;;;
2021/02/24 05:48:27;;;;;;;16;5.4;;;;;;;3.85;79.00293;956.2338;;;;
2021/02/24 05:50:58;;;;;;;25.5;6.2;;;;;;;3.81;79.19629;956.2654;;;;
2021/02/24 05:53:30;;;;;;;33.5;5.6;;;;;;;3.8;79.375;956.2519;;;;
2021/02/24 05:56:00;;;;;;;16.6;4.9;;;;;;;3.76;79.32324;956.2612;;;;
2021/02/24 05:58:25;;;;;;;14.7;5;;;;;;;3.84;79.02148;956.2517;;;;
2021/02/24 06:00:54;;;;;;;21.5;5.5;;;;;;;3.91;78.32813;956.2517;;;;
2021/02/24 06:03:19;;;;;;;13.6;4.5;;;;;;;3.9;78.38281;956.1934;;;;
2021/02/24 06:05:45;;;;;;;19;5.9;;;;;;;3.88;78.89648;956.2845;;;;
2021/02/24 06:08:13;;;;;;;12.5;5;;;;;;;3.91;78.95801;956.2571;;;;
2021/02/24 06:10:43;;;;;;;10.4;5.2;;;;;;;3.89;79.06738;956.1984;;;;
2021/02/24 06:13:08;;;;;;;9.4;3.5;;;;;;;3.95;78.84277;956.2101;;;;
2021/02/24 06:15:49;;;;;;;10.6;4.6;;;;;;;4.09;80.72363;956.198;;;;
2021/02/24 06:18:15;;;;;;;16.6;4.1;;;;;;;4.2;77.99707;956.1728;;;;
2021/02/24 06:20:45;;;;;;;15.7;6.3;;;;;;;4.26;77.05469;956.1945;;;;
2021/02/24 06:23:10;;;;;;;12.3;6.1;;;;;;;4.26;77.96582;956.2191;;;;
2021/02/24 06:25:35;;;;;;;12.8;4.8;;;;;;;4.31;78.46875;956.2014;;;;
2021/02/24 06:28:03;;;;;;;17.7;5.3;;;;;;;4.23;77.5332;956.1936;;;;
2021/02/24 06:30:34;;;;;;;10.3;4.2;;;;;;;4.25;78.60352;956.1983;;;;
2021/02/24 06:33:02;;;;;;;23.3;5.7;;;;;;;4.27;77.21191;956.0989;;;;
2021/02/24 06:35:27;;;;;;;14.7;4.7;;;;;;;4.21;77.44922;956.186;;;;
2021/02/24 06:37:52;;;;;;;13;4.9;;;;;;;4.18;77.80273;956.1552;;;;
2021/02/24 06:40:23;;;;;;;17.8;6.2;;;;;;;4.24;77.9043;956.145;;;;
2021/02/24 06:42:53;;;;;;;18.1;5;;;;;;;4.49;77.35449;956.1505;;;;
2021/02/24 06:45:19;;;;;;;22.9;5.4;;;;;;;4.67;76.51953;956.0978;;;;
2021/02/24 06:47:49;;;;;;;15.1;4.1;;;;;;;4.77;76.15234;956.1216;;;;
2021/02/24 06:50:14;;;;;;;8.4;4.1;;;;;;;4.81;75.9375;956.1003;;;;
2021/02/24 06:52:45;;;;;;;12.1;5.2;;;;;;;4.91;75.62598;956.1607;;;;
2021/02/24 06:55:16;;;;;;;25.6;5.5;;;;;;;4.91;75.08594;956.0931;;;;
2021/02/24 06:57:46;;;;;;;13.2;4.8;;;;;;;5.14;74.40527;956.1082;;;;
2021/02/24 07:00:17;;;;;;;13.4;3.8;;;;;;;5.32;73.52148;956.0325;;;;
2021/02/24 07:02:42;;;;;;;16.2;6;;;;;;;5.37;73.06836;955.9994;;;;
2021/02/24 07:05:11;;;;;;;8.7;4.3;;;;;;;5.44;72.79883;956.0076;;;;
2021/02/24 07:07:36;;;;;;;18.3;5.5;;;;;;;5.58;72.31348;955.9269;;;;
2021/02/24 07:10:05;;;;;;;17.8;5.2;;;;;;;5.76;71.67773;955.9341;;;;
2021/02/24 07:12:35;;;;;;;21.5;6.1;;;;;;;5.97;70.91211;955.9235;;;;
2021/02/24 07:15:06;;;;;;;12.4;4.2;;;;;;;6.14;70.25098;955.8968;;;;
2021/02/24 07:17:34;;;;;;;24.5;6;;;;;;;6.27;70.01172;955.8653;;;;
2021/02/24 07:20:02;;;;;;;15.7;4.7;;;;;;;6.46;69.00195;955.8669;;;;
2021/02/24 07:22:28;;;;;;;11.8;3.6;;;;;;;6.62;68.65332;955.8187;;;;
2021/02/24 07:25:01;;;;;;;22.7;4.8;;;;;;;6.95;67.33691;955.8403;;;;
2021/02/24 07:27:26;;;;;;;11.5;5.2;;;;;;;7.28;66.46094;955.7594;;;;
2021/02/24 07:29:54;;;;;;;27.2;5.3;;;;;;;7.48;65.40137;955.6886;;;;
2021/02/24 07:32:19;;;;;;;10.1;4.2;;;;;;;7.57;65.14551;955.6924;;;;
2021/02/24 07:34:50;;;;;;;12.6;4.8;;;;;;;7.49;65.08691;955.69;;;;
2021/02/24 07:37:15;;;;;;;11.3;4.2;;;;;;;7.8;64.5332;955.6584;;;;
2021/02/24 07:39:42;;;;;;;19;5.4;;;;;;;7.83;64.02734;955.5165;;;;
2021/02/24 07:42:07;;;;;;;12.9;4.4;;;;;;;8.2;63.01367;955.6373;;;;
2021/02/24 07:44:32;;;;;;;13.1;4;;;;;;;8.61;61.64355;955.6026;;;;
2021/02/24 07:46:59;;;;;;;20.2;4.7;;;;;;;9.11;59.89355;955.5447;;;;
2021/02/24 07:49:31;;;;;;;12.7;4.9;;;;;;;9.58;58.20313;955.4781;;;;
2021/02/24 07:51:58;;;;;;;10;4.3;;;;;;;9.76;57.61328;955.4269;;;;
2021/02/24 07:54:28;;;;;;;9.3;4.4;;;;;;;10.04;56.9541;955.5115;;;;
2021/02/24 07:56:54;;;;;;;8.9;3.5;;;;;;;10.36;54.78125;955.4688;;;;
2021/02/24 07:59:19;;;;;;;11.6;4.1;;;;;;;10.98;52.97461;955.3887;;;;
2021/02/24 08:01:44;;;;;;;11.6;3.5;;;;;;;11.21;50.45313;955.3994;;;;
2021/02/24 08:04:11;;;;;;;19.7;2.8;;;;;;;11.62;49.61914;955.3318;;;;
2021/02/24 08:06:40;;;;;;;16.6;3.9;;;;;;;11.63;49.37988;955.3053;;;;
2021/02/24 08:09:09;;;;;;;18;3.5;;;;;;;12.25;47.99512;955.3211;;;;
2021/02/24 08:11:35;;;;;;;19.7;4.5;;;;;;;12.49;47.03516;955.2944;;;;
2021/02/24 08:14:12;;;;;;;22;4.8;;;;;;;13.09;46.60645;955.2713;;;;
2021/02/24 08:16:47;;;;;;;14.7;3.1;;;;;;;13.98;44.52539;955.2408;;;;
2021/02/24 08:19:16;;;;;;;12.7;3.7;;;;;;;14.96;42.19238;955.1652;;;;
2021/02/24 08:21:46;;;;;;;8.5;4.1;;;;;;;14.59;41.66113;955.1675;;;;
2021/02/24 08:24:12;;;;;;;26.4;5.4;;;;;;;15.35;41.0293;955.0513;;;;
2021/02/24 08:26:40;;;;;;;10.9;4.7;;;;;;;16.36;38.6377;955.054;;;;
2021/02/24 08:29:06;;;;;;;27.9;5.3;;;;;;;17.16;37.07227;954.9891;;;;
2021/02/24 08:31:32;;;;;;;14.4;3.4;;;;;;;17.99;35.52832;954.9475;;;;
2021/02/24 08:33:57;;;;;;;12.2;4.5;;;;;;;17.34;35.8584;954.9155;;;;
2021/02/24 08:36:37;;;;;;;14;3.2;;;;;;;17.13;35.91016;954.9034;;;;
2021/02/24 08:39:02;;;;;;;9.1;3.8;;;;;;;16.29;37.83203;954.8665;;;;
2021/02/24 08:41:27;;;;;;;10;3;;;;;;;17.77;35.5459;954.7842;;;;
2021/02/24 08:44:01;;;;;;;19.1;4.4;;;;;;;17.6;36.2627;954.8105;;;;
2021/02/24 08:46:26;;;;;;;14.4;4;;;;;;;18.86;33.95801;954.705;;;;
2021/02/24 08:48:51;;;;;;;14.3;3.2;;;;;;;19.74;32.40527;954.7115;;;;
2021/02/24 08:51:23;;;;;;;17.3;4.8;;;;;;;20.22;31.48242;954.6944;;;;
2021/02/24 08:53:54;;;;;;;11.4;4.4;;;;;;;21.11;29.27637;954.689;;;;
2021/02/24 08:56:19;;;;;;;7.8;3.6;;;;;;;22.02;28.68066;954.6397;;;;
2021/02/24 08:58:49;;;;;;;13.8;2.9;;;;;;;22.4;27.40332;954.6135;;;;
2021/02/24 09:01:15;;;;;;;9.5;5;;;;;;;22.42;26.95898;954.5458;;;;
2021/02/24 09:03:42;;;;;;;20.6;5.2;;;;;;;21.93;27.80859;954.5001;;;;
2021/02/24 09:06:08;;;;;;;11.3;4.3;;;;;;;21.78;27.84473;954.5213;;;;
2021/02/24 09:08:36;;;;;;;11.7;3.9;;;;;;;20.28;29.16309;954.5058;;;;
2021/02/24 09:11:05;;;;;;;9.8;3.6;;;;;;;19.55;30.35156;954.4316;;;;
2021/02/24 09:13:36;;;;;;;18.2;4.1;;;;;;;20.14;29.81934;954.4726;;;;
2021/02/24 09:16:05;;;;;;;15.7;3.6;;;;;;;20.25;29.91992;954.4266;;;;
2021/02/24 09:18:31;;;;;;;11.9;4.6;;;;;;;19.26;30.86719;954.4612;;;;
2021/02/24 09:20:59;;;;;;;11.4;4.1;;;;;;;18.62;32.27539;954.3521;;;;
2021/02/24 09:23:24;;;;;;;8.6;3.4;;;;;;;18.11;32.49414;954.4028;;;;
2021/02/24 09:25:55;;;;;;;11.8;4.1;;;;;;;17.94;32.90039;954.324;;;;
2021/02/24 09:28:20;;;;;;;16.7;4.5;;;;;;;18.32;32.40527;954.3293;;;;
2021/02/24 09:30:45;;;;;;;11.4;3.5;;;;;;;18.98;31.52246;954.2872;;;;
2021/02/24 09:33:14;;;;;;;12.5;3.2;;;;;;;18.95;30.35547;954.2452;;;;
2021/02/24 09:35:39;;;;;;;12.3;3.7;;;;;;;19;30.84863;954.213;;;;
2021/02/24 09:38:04;;;;;;;19.3;4.4;;;;;;;20;29.93848;954.1547;;;;
2021/02/24 09:40:32;;;;;;;15.7;3.7;;;;;;;20.1;29.43262;954.1912;;;;
2021/02/24 09:43:02;;;;;;;11.9;3.6;;;;;;;20.29;28.74414;954.1822;;;;
2021/02/24 09:45:27;;;;;;;12.3;3.1;;;;;;;20.44;29.20898;954.1306;;;;
2021/02/24 09:47:59;;;;;;;9.9;3.1;;;;;;;21.09;28.9248;954.0605;;;;
2021/02/24 09:50:21;;;;;;;13.8;3.4;;;;;;;22.04;27.7207;954.0654;;;;
2021/02/24 09:52:47;;;;;;;15.3;3.8;;;;;;;22.12;27.80762;954.0105;;;;
2021/02/24 09:55:13;;;;;;;12.7;4;;;;;;;21.57;27.71484;953.9867;;;;
2021/02/24 09:57:41;;;;;;;19.5;4.8;;;;;;;21.73;28.97754;953.8884;;;;
2021/02/24 10:00:10;;;;;;;18.8;3.5;;;;;;;22.21;26.86328;953.9674;;;;
2021/02/24 10:02:35;;;;;;;8.2;3.3;;;;;;;21.67;28.5293;953.9327;;;;
2021/02/24 10:05:04;;;;;;;5.6;2.5;;;;;;;20.83;28.1709;953.932;;;;
2021/02/24 10:07:29;;;;;;;7.5;2.7;;;;;;;21.46;27.98926;953.8992;;;;
2021/02/24 10:09:56;;;;;;;29.2;7;;;;;;;21.24;27.77539;953.8848;;;;
2021/02/24 10:12:21;;;;;;;14.6;2.9;;;;;;;21.63;27.49512;953.9031;;;;
2021/02/24 10:14:46;;;;;;;14.7;2.9;;;;;;;21.49;27.87305;953.9006;;;;
2021/02/24 10:17:11;;;;;;;18.2;4.5;;;;;;;21.77;27.25879;953.8605;;;;
2021/02/24 10:19:40;;;;;;;14;3.5;;;;;;;21.79;27.4707;953.8448;;;;
2021/02/24 10:22:05;;;;;;;15.6;4.7;;;;;;;22.12;26.89355;953.8272;;;;
2021/02/24 10:24:34;;;;;;;12.1;3.4;;;;;;;21.24;26.96875;953.7967;;;;
2021/02/24 10:27:00;;;;;;;23.8;4.1;;;;;;;21.21;26.94434;953.7704;;;;
2021/02/24 10:29:28;;;;;;;21.8;3.5;;;;;;;21.5;27.5459;953.7481;;;;
2021/02/24 10:31:54;;;;;;;12.6;3;;;;;;;21.6;26.7793;953.7019;;;;
2021/02/24 10:34:24;;;;;;;9.8;3.2;;;;;;;21.24;26.72363;953.7157;;;;
2021/02/24 10:36:49;;;;;;;15.2;4.1;;;;;;;21.78;27.33008;953.6933;;;;
2021/02/24 10:39:17;;;;;;;8.4;3.8;;;;;;;22.09;26.21191;953.6376;;;;
2021/02/24 10:41:44;;;;;;;6.8;2.1;;;;;;;22.31;25.48535;953.6428;;;;
2021/02/24 10:44:09;;;;;;;18.3;3.2;;;;;;;22.88;25.62402;953.5905;;;;
2021/02/24 10:46:38;;;;;;;13.9;3.8;;;;;;;23.58;24.8877;953.5975;;;;
2021/02/24 10:49:10;;;;;;;21.5;4.8;;;;;;;24.09;23.46777;953.5617;;;;
2021/02/24 10:51:39;;;;;;;10.2;3.6;;;;;;;23.53;23.80273;953.5321;;;;
2021/02/24 10:54:04;;;;;;;9.1;3.8;;;;;;;23.79;23.41699;953.5511;;;;
2021/02/24 10:56:31;;;;;;;15.7;2.9;;;;;;;23.42;23.98535;953.5375;;;;
2021/02/24 10:58:57;;;;;;;9;3.8;;;;;;;23.42;23.99707;953.4742;;;;
2021/02/24 11:01:23;;;;;;;5.5;2.8;;;;;;;23.7;24.41211;953.3655;;;;
2021/02/24 11:03:48;;;;;;;16.4;4.6;;;;;;;23.98;24.05078;953.3323;;;;
2021/02/24 11:06:15;;;;;;;13.6;3;;;;;;;24.76;22.52441;953.2457;;;;
2021/02/24 11:08:40;;;;;;;17.4;3.8;;;;;;;25.27;22.13672;953.2336;;;;
2021/02/24 11:11:05;;;;;;;6.7;2.5;;;;;;;25.61;21.96484;953.0691;;;;
2021/02/24 11:13:32;;;;;;;21.4;3.9;;;;;;;25.03;21.54688;953.1671;;;;
2021/02/24 11:16:02;;;;;;;10;4;;;;;;;24.41;22.83691;953.087;;;;
2021/02/24 11:18:32;;;;;;;8.6;3.1;;;;;;;25.25;21.88867;953.15;;;;
2021/02/24 11:21:01;;;;;;;17.9;4.3;;;;;;;24.94;22.27441;953.0839;;;;
2021/02/24 11:23:26;;;;;;;13.5;3.8;;;;;;;25.43;21.87305;953.005;;;;
2021/02/24 11:25:56;;;;;;;6.5;2.6;;;;;;;26.12;20.49902;953.0012;;;;
2021/02/24 11:28:26;;;;;;;11.6;3.3;;;;;;;26.67;20.25195;953.0087;;;;
2021/02/24 11:30:55;;;;;;;10.5;2.6;;;;;;;27.17;20.2627;953.0319;;;;
2021/02/24 11:33:27;;;;;;;11.5;3.6;;;;;;;27.89;19.33301;953.0258;;;;
2021/02/24 11:35:56;;;;;;;10.8;2.7;;;;;;;27.81;19.44824;952.9645;;;;
2021/02/24 11:38:25;;;;;;;8;2.6;;;;;;;28.22;18.97949;952.9744;;;;
2021/02/24 11:40:51;;;;;;;8;2.6;;;;;;;27.99;19.00488;952.9455;;;;
2021/02/24 11:43:20;;;;;;;24.1;3.4;;;;;;;28.53;19.74121;952.9035;;;;
2021/02/24 11:45:45;;;;;;;8.3;3.4;;;;;;;28;19.99121;952.8878;;;;
2021/02/24 11:48:14;;;;;;;17.7;3.8;;;;;;;27.65;19.75;952.8416;;;;
2021/02/24 11:50:39;;;;;;;9.5;1.9;;;;;;;27.61;20.08105;952.8462;;;;
2021/02/24 11:53:07;;;;;;;6.9;2.8;;;;;;;28.04;18.99512;952.8155;;;;
2021/02/24 11:55:44;;;;;;;8.2;3.9;;;;;;;27.58;20.06738;952.7835;;;;
2021/02/24 11:58:15;;;;;;;11.3;2.9;;;;;;;27.34;20.46094;952.7272;;;;
2021/02/24 12:00:40;;;;;;;9.4;2.8;;;;;;;27.21;21.08301;952.8074;;;;
2021/02/24 12:03:10;;;;;;;5.8;2.8;;;;;;;26.89;21.80273;952.7317;;;;
2021/02/24 12:05:42;;;;;;;12.7;3.8;;;;;;;27.68;20.51074;952.7194;;;;
2021/02/24 12:08:11;;;;;;;12.8;3.3;;;;;;;27.9;20.91406;952.6505;;;;
2021/02/24 12:10:40;;;;;;;7.3;2.9;;;;;;;27.75;20.31348;952.6578;;;;
2021/02/24 12:13:12;;;;;;;12.8;2.9;;;;;;;27.25;21.32227;952.5536;;;;
2021/02/24 12:15:44;;;;;;;9.5;3.1;;;;;;;26.31;22.72168;952.5778;;;;
2021/02/24 12:18:09;;;;;;;10.8;3.1;;;;;;;27.21;21.35547;952.6038;;;;
2021/02/24 12:20:36;;;;;;;12.5;2.9;;;;;;;26.95;21.49707;952.5664;;;;
2021/02/24 12:23:06;;;;;;;12.2;3.4;;;;;;;27.39;20.75977;952.5062;;;;
2021/02/24 12:25:41;;;;;;;11.9;2.9;;;;;;;26.68;21.18848;952.4451;;;;
2021/02/24 12:28:12;;;;;;;29;3.4;;;;;;;26.56;20.95801;952.4609;;;;
2021/02/24 12:30:39;;;;;;;9.4;2.7;;;;;;;27.68;19.76367;952.4661;;;;
2021/02/24 12:33:08;;;;;;;9.4;3.7;;;;;;;28.47;19.48926;952.4037;;;;
2021/02/24 12:35:37;;;;;;;9.7;2.7;;;;;;;28.42;19.46289;952.3318;;;;
2021/02/24 12:38:02;;;;;;;5.1;2.2;;;;;;;29.37;18.48047;952.2595;;;;
2021/02/24 12:40:35;;;;;;;14.4;2.6;;;;;;;28.66;19.61621;952.2665;;;;
2021/02/24 12:43:00;;;;;;;8;2.6;;;;;;;28.29;19.6123;952.1973;;;;
2021/02/24 12:45:25;;;;;;;5;2.4;;;;;;;27.92;20.46289;952.2846;;;;
2021/02/24 12:47:50;;;;;;;8;2.8;;;;;;;28.33;19.6377;952.1917;;;;
2021/02/24 12:50:21;;;;;;;11.2;3;;;;;;;29.41;19.20801;952.1964;;;;
2021/02/24 12:52:46;;;;;;;9.6;3.5;;;;;;;29.67;18.43262;952.1666;;;;
2021/02/24 12:55:12;;;;;;;15.1;3.2;;;;;;;30.11;18.37891;952.1219;;;;
2021/02/24 12:57:40;;;;;;;8.4;3.3;;;;;;;29.09;19.00391;952.0914;;;;
2021/02/24 13:00:08;;;;;;;9.6;2.8;;;;;;;29.29;19.23926;952.1136;;;;
2021/02/24 13:02:33;;;;;;;11.1;3;;;;;;;28.02;20.50293;952.1074;;;;
2021/02/24 13:05:02;;;;;;;9.7;3.1;;;;;;;28.46;19.63184;952.0355;;;;
2021/02/24 13:07:27;;;;;;;14;3.3;;;;;;;28.7;20.65332;952.02;;;;
2021/02/24 13:09:55;;;;;;;13.6;2.8;;;;;;;27.76;21.07324;951.9675;;;;
2021/02/24 13:12:20;;;;;;;8.4;2.9;;;;;;;27.77;21.27539;951.9236;;;;
2021/02/24 13:14:48;;;;;;;5.2;2.2;;;;;;;27.22;20.82227;951.9752;;;;
2021/02/24 13:17:19;;;;;;;11.9;2.8;;;;;;;27.95;20.41699;951.9788;;;;
2021/02/24 13:19:48;;;;;;;4.9;2.2;;;;;;;28.69;19.53418;951.9473;;;;
2021/02/24 13:22:14;;;;;;;14;3.1;;;;;;;29;19.48828;951.9214;;;;
2021/02/24 13:24:43;;;;;;;9.3;2.2;;;;;;;28.96;19.77246;951.8422;;;;
2021/02/24 13:27:08;;;;;;;6.2;3.1;;;;;;;27.75;21.28613;951.9457;;;;
2021/02/24 13:29:34;;;;;;;9.4;3.1;;;;;;;27.02;21.86816;951.9144;;;;
2021/02/24 13:32:00;;;;;;;24.1;3.3;;;;;;;26.57;22.9834;951.9702;;;;
2021/02/24 13:34:27;;;;;;;9.3;2.8;;;;;;;27.44;21.16504;951.9133;;;;
2021/02/24 13:36:52;;;;;;;8.4;2.7;;;;;;;27.21;21.99609;951.9041;;;;
2021/02/24 13:39:22;;;;;;;11.1;2.8;;;;;;;28.23;20.78613;951.8592;;;;
2021/02/24 13:41:47;;;;;;;12.1;3.3;;;;;;;28.52;20.16895;951.8694;;;;
2021/02/24 13:44:15;;;;;;;14.5;4.2;;;;;;;28.08;20.38672;951.8156;;;;
2021/02/24 13:46:40;;;;;;;16.3;2.4;;;;;;;28.55;20.19434;951.8491;;;;
2021/02/24 13:49:07;;;;;;;6.7;2.7;;;;;;;29.21;19.83105;951.8106;;;;
2021/02/24 13:51:33;;;;;;;7.1;2.8;;;;;;;27.87;20.80566;951.8284;;;;
2021/02/24 13:54:02;;;;;;;8.9;2.9;;;;;;;28.55;20.25391;951.851;;;;
2021/02/24 13:56:32;;;;;;;13.8;2.9;;;;;;;29.25;19.05859;951.8259;;;;
2021/02/24 13:58:57;;;;;;;4.5;1.8;;;;;;;29.28;19.5957;951.7219;;;;
2021/02/24 14:01:29;;;;;;;5.4;2.2;;;;;;;29.35;19.3125;951.7723;;;;
2021/02/24 14:04:03;;;;;;;9.9;3;;;;;;;29.34;19.26465;951.7728;;;;
2021/02/24 14:06:27;;;;;;;8.8;2.5;;;;;;;28.47;19.54883;951.7628;;;;
2021/02/24 14:08:56;;;;;;;7.5;2.6;;;;;;;27.86;20.3418;951.7511;;;;
2021/02/24 14:11:21;;;;;;;3.1;1.9;;;;;;;28.41;19.47461;951.7316;;;;
2021/02/24 14:13:53;;;;;;;8.7;2.1;;;;;;;28.08;19.6748;951.6867;;;;
2021/02/24 14:16:20;;;;;;;8.1;2.9;;;;;;;28.38;19.56836;951.7131;;;;
2021/02/24 14:18:45;;;;;;;7.7;2.8;;;;;;;28.71;19.14258;951.6933;;;;
2021/02/24 14:21:15;;;;;;;6.4;2.3;;;;;;;28.77;19.19336;951.6922;;;;
2021/02/24 14:23:40;;;;;;;16;3;;;;;;;28.98;18.84473;951.6517;;;;
2021/02/24 14:26:09;;;;;;;7.4;2.9;;;;;;;29.44;18.66113;951.6473;;;;
2021/02/24 14:28:34;;;;;;;9.6;2.7;;;;;;;28.22;20.32227;951.7003;;;;